Time;durP1;ratioP1;P1;durP2;ratioP2;P2;SDS_P1;SDS_P2;PMS_P1;PMS_P2;Temp;Humidity;BMP_temperature;BMP_pressure;BME280_temperature;BME280_humidity;BME280_pressure;Samples;Min_cycle;Max_cycle;Signal;HPM_P1;HPM_P2
2021/11/19 00:01:35;;;;;;;4.03;0.90;;;21.40;44.00;;;;;;4993306;28;20049;-68
2021/11/19 00:04:02;;;;;;;2.63;0.80;;;21.50;44.10;;;;;;4995571;28;20038;-68
2021/11/19 00:06:28;;;;;;;2.83;0.82;;;21.40;44.00;;;;;;4994986;28;20034;-68
2021/11/19 00:08:54;;;;;;;2.63;0.98;;;21.50;44.10;;;;;;4994431;28;20038;-68
2021/11/19 00:11:25;;;;;;;3.17;1.00;;;21.50;44.10;;;;;;4994048;28;20045;-68
2021/11/19 00:13:51;;;;;;;3.35;1.00;;;21.40;43.90;;;;;;4993104;28;20049;-68
2021/11/19 00:16:18;;;;;;;2.85;0.90;;;21.40;44.00;;;;;;4992845;28;20050;-68
2021/11/19 00:18:45;;;;;;;3.58;1.20;;;21.50;44.20;;;;;;4994260;28;20038;-67
2021/11/19 00:21:11;;;;;;;2.97;0.90;;;21.40;44.00;;;;;;4995117;28;20034;-68
2021/11/19 00:23:39;;;;;;;2.55;0.80;;;21.40;44.00;;;;;;4998925;28;20922;-68
2021/11/19 00:26:07;;;;;;;3.33;0.82;;;21.40;44.10;;;;;;4996795;28;20039;-68
2021/11/19 00:28:33;;;;;;;2.83;0.80;;;21.40;44.00;;;;;;4993989;28;20511;-68
2021/11/19 00:30:59;;;;;;;2.97;0.88;;;21.50;44.30;;;;;;4998178;28;20050;-68
2021/11/19 00:33:25;;;;;;;2.25;0.77;;;21.50;44.20;;;;;;4996465;28;20111;-68
2021/11/19 00:35:52;;;;;;;2.75;0.90;;;21.50;44.30;;;;;;4997964;28;20074;-68
2021/11/19 00:38:20;;;;;;;2.42;0.77;;;21.50;44.20;;;;;;4997244;28;20049;-68
2021/11/19 00:40:53;;;;;;;2.75;0.88;;;21.50;44.20;;;;;;4987826;28;20108;-68
2021/11/19 00:43:19;;;;;;;2.20;0.70;;;21.40;44.10;;;;;;4997376;28;20976;-68
2021/11/19 00:45:46;;;;;;;2.53;0.75;;;21.50;44.40;;;;;;5011979;28;20057;-68
2021/11/19 00:48:12;;;;;;;4.28;1.00;;;21.50;44.30;;;;;;4996954;28;20092;-68
2021/11/19 00:50:48;;;;;;;2.42;0.80;;;21.50;44.30;;;;;;4995306;28;20060;-66
2021/11/19 00:53:14;;;;;;;2.03;0.70;;;21.50;44.30;;;;;;4996996;28;20073;-67
2021/11/19 00:55:41;;;;;;;3.35;0.90;;;21.50;44.30;;;;;;5011004;28;20050;-67
2021/11/19 00:58:08;;;;;;;2.50;0.80;;;21.50;44.30;;;;;;4994672;28;20116;-67
2021/11/19 01:00:49;;;;;;;3.55;0.90;;;21.50;44.30;;;;;;4996826;28;20044;-67
2021/11/19 01:03:17;;;;;;;2.58;0.70;;;21.50;44.20;;;;;;5012569;28;20030;-68
2021/11/19 01:05:43;;;;;;;2.92;0.75;;;21.50;44.30;;;;;;4995579;28;20045;-68
2021/11/19 01:08:10;;;;;;;1.90;0.70;;;21.50;44.30;;;;;;5011404;28;20122;-67
2021/11/19 01:10:38;;;;;;;2.20;0.70;;;21.50;44.30;;;;;;5011430;28;20148;-68
2021/11/19 01:13:05;;;;;;;2.13;0.70;;;21.50;44.20;;;;;;5011289;28;20065;-68
2021/11/19 01:15:38;;;;;;;2.70;0.80;;;21.50;44.30;;;;;;5004688;28;20070;-68
2021/11/19 01:18:45;;;;;;;1.60;0.63;;;21.50;44.20;;;;;;4995867;28;20034;-68
2021/11/19 01:21:16;;;;;;;;;;;21.50;44.20;;;;;;4993888;28;20030;-68
2021/11/19 01:23:44;;;;;;;2.78;0.82;;;21.50;44.40;;;;;;5003812;28;20367;-68
2021/11/19 01:26:20;;;;;;;2.30;0.77;;;21.50;44.40;;;;;;5011457;28;20052;-68
2021/11/19 01:28:52;;;;;;;2.17;0.60;;;21.50;44.30;;;;;;5010806;28;20046;-68
2021/11/19 01:31:23;;;;;;;1.98;0.65;;;21.50;44.30;;;;;;5012917;28;20431;-65
2021/11/19 01:33:55;;;;;;;1.88;0.70;;;21.50;44.30;;;;;;5008380;28;20049;-68
2021/11/19 01:36:44;;;;;;;2.25;0.60;;;21.50;44.30;;;;;;4993719;28;20948;-67
2021/11/19 01:39:26;;;;;;;1.77;0.60;;;21.50;44.30;;;;;;5003737;28;20385;-68
2021/11/19 01:42:20;;;;;;;1.67;0.70;;;21.50;44.30;;;;;;5010519;28;20120;-67
2021/11/19 01:44:58;;;;;;;2.83;0.80;;;21.40;44.10;;;;;;5011398;28;20038;-68
2021/11/19 01:47:25;;;;;;;1.65;0.50;;;21.50;44.30;;;;;;5003140;28;20060;-67
2021/11/19 01:49:52;;;;;;;1.65;0.60;;;21.50;44.30;;;;;;5003572;28;20064;-68
2021/11/19 01:52:40;;;;;;;1.67;0.60;;;21.50;44.30;;;;;;4996219;28;20502;-68
2021/11/19 01:55:15;;;;;;;2.13;0.60;;;21.50;44.30;;;;;;4995084;28;20136;-68
2021/11/19 01:57:58;;;;;;;1.75;0.70;;;21.40;44.10;;;;;;4994033;28;20530;-67
2021/11/19 02:00:38;;;;;;;1.92;0.60;;;21.40;44.10;;;;;;5010156;28;20499;-68
2021/11/19 02:03:07;;;;;;;1.35;0.50;;;21.40;44.10;;;;;;5011893;28;20554;-67
2021/11/19 02:05:59;;;;;;;2.67;0.73;;;21.40;44.10;;;;;;5010739;28;20046;-68
2021/11/19 02:08:28;;;;;;;1.77;0.65;;;21.40;44.10;;;;;;4995984;28;20045;-67
2021/11/19 02:11:20;;;;;;;2.55;0.73;;;21.40;44.10;;;;;;4998879;28;21332;-68
2021/11/19 02:14:19;;;;;;;2.72;0.70;;;21.40;44.20;;;;;;5000544;28;20038;-67
2021/11/19 02:16:52;;;;;;;1.40;0.50;;;21.40;44.90;;;;;;4996402;28;20046;-68
2021/11/19 02:19:27;;;;;;;1.48;0.60;;;21.40;44.10;;;;;;5009383;28;20550;-68
2021/11/19 02:22:24;;;;;;;2.90;0.80;;;21.40;44.20;;;;;;4994786;28;20069;-68
2021/11/19 02:25:00;;;;;;;1.67;0.60;;;21.40;44.20;;;;;;4982053;28;20034;-68
2021/11/19 02:27:43;;;;;;;1.13;0.50;;;21.40;44.20;;;;;;4992281;28;20104;-68
2021/11/19 02:30:44;;;;;;;1.95;0.68;;;21.40;44.20;;;;;;5012482;28;20503;-68
2021/11/19 02:33:12;;;;;;;1.65;0.50;;;21.40;44.40;;;;;;4968958;28;20041;-67
2021/11/19 02:36:28;;;;;;;2.13;0.70;;;21.40;44.20;;;;;;5008708;28;20042;-68
2021/11/19 02:39:22;;;;;;;1.80;0.60;;;21.40;44.30;;;;;;5010858;28;20046;-67
2021/11/19 02:41:53;;;;;;;1.40;0.50;;;21.30;44.10;;;;;;5002657;28;20471;-68
2021/11/19 02:44:22;;;;;;;1.67;0.60;;;21.40;44.20;;;;;;4998864;28;20080;-68
2021/11/19 02:46:58;;;;;;;1.70;0.60;;;21.40;44.30;;;;;;4992846;28;20411;-68
2021/11/19 02:49:26;;;;;;;1.65;0.60;;;21.40;44.20;;;;;;5008184;28;20439;-67
2021/11/19 02:51:52;;;;;;;1.30;0.50;;;21.40;44.20;;;;;;5007330;28;20088;-68
2021/11/19 02:54:25;;;;;;;2.42;0.77;;;21.40;44.30;;;;;;5007785;28;20515;-68
2021/11/19 02:56:52;;;;;;;1.50;0.50;;;21.40;44.30;;;;;;4996022;28;20058;-68
2021/11/19 02:59:19;;;;;;;1.75;0.60;;;21.40;44.30;;;;;;4997149;28;20049;-68
2021/11/19 03:01:57;;;;;;;1.85;0.63;;;21.40;44.30;;;;;;5009578;28;20049;-68
2021/11/19 03:04:30;;;;;;;1.98;0.60;;;21.40;44.30;;;;;;5008793;28;20045;-68
2021/11/19 03:06:58;;;;;;;1.30;0.50;;;21.40;44.20;;;;;;4993993;28;20046;-68
2021/11/19 03:09:28;;;;;;;1.58;0.60;;;21.40;44.20;;;;;;4994714;28;20096;-68
2021/11/19 03:11:55;;;;;;;2.70;0.65;;;21.40;44.30;;;;;;5011291;28;20046;-68
2021/11/19 03:14:23;;;;;;;1.75;0.60;;;21.40;45.00;;;;;;5010560;28;20044;-68
2021/11/19 03:16:50;;;;;;;1.52;0.55;;;21.40;44.80;;;;;;5007151;28;20042;-68
2021/11/19 03:19:17;;;;;;;2.25;0.70;;;21.40;44.40;;;;;;5008304;28;20038;-68
2021/11/19 03:21:44;;;;;;;2.20;0.55;;;21.40;44.30;;;;;;4993067;28;20519;-67
2021/11/19 03:24:12;;;;;;;1.67;0.60;;;21.40;44.40;;;;;;4998444;28;20038;-68
2021/11/19 03:26:39;;;;;;;0.98;0.40;;;21.40;44.40;;;;;;4993323;28;20049;-68
2021/11/19 03:29:07;;;;;;;1.67;0.60;;;21.40;44.40;;;;;;5006234;28;20042;-68
2021/11/19 03:31:34;;;;;;;2.25;0.50;;;21.40;44.30;;;;;;4997773;28;20450;-68
2021/11/19 03:34:01;;;;;;;1.50;0.60;;;21.40;44.30;;;;;;5000981;28;20045;-68
2021/11/19 03:36:27;;;;;;;1.85;0.57;;;21.40;44.40;;;;;;4991872;28;20045;-68
2021/11/19 03:38:56;;;;;;;1.85;0.40;;;21.40;44.40;;;;;;5008360;28;20042;-68
2021/11/19 03:41:27;;;;;;;1.35;0.52;;;21.40;44.40;;;;;;5008282;28;20052;-68
2021/11/19 03:44:09;;;;;;;2.08;0.60;;;21.40;44.30;;;;;;5009961;28;20059;-68
2021/11/19 03:47:10;;;;;;;1.48;0.52;;;21.40;44.30;;;;;;5008827;28;20042;-68
2021/11/19 03:49:38;;;;;;;1.77;0.55;;;21.40;44.40;;;;;;5009018;28;20049;-68
2021/11/19 03:52:15;;;;;;;1.15;0.50;;;21.40;44.30;;;;;;5008984;28;20042;-68
2021/11/19 03:54:46;;;;;;;1.35;0.50;;;21.40;44.30;;;;;;4995521;28;20097;-67
2021/11/19 03:57:14;;;;;;;1.50;0.50;;;21.40;44.30;;;;;;5010489;28;20042;-68
2021/11/19 03:59:41;;;;;;;1.92;0.55;;;21.40;44.30;;;;;;4997298;28;20046;-68
2021/11/19 04:02:07;;;;;;;1.33;0.50;;;21.40;44.30;;;;;;5011933;28;20042;-68
2021/11/19 04:04:35;;;;;;;1.30;0.40;;;21.40;44.30;;;;;;5013122;28;20042;-68
2021/11/19 04:07:03;;;;;;;1.17;0.50;;;21.40;44.40;;;;;;5000085;28;20502;-68
2021/11/19 04:09:31;;;;;;;2.20;0.50;;;21.40;45.00;;;;;;5013951;28;20485;-68
2021/11/19 04:11:59;;;;;;;1.60;0.60;;;21.40;44.30;;;;;;5013089;28;20507;-69
2021/11/19 04:14:27;;;;;;;1.58;0.50;;;21.40;44.30;;;;;;5010842;28;20507;-68
2021/11/19 04:16:55;;;;;;;1.15;0.38;;;21.40;44.30;;;;;;4999486;28;20135;-68
2021/11/19 04:19:23;;;;;;;1.85;0.55;;;21.40;44.30;;;;;;4998599;28;20038;-68
2021/11/19 04:21:50;;;;;;;2.17;0.50;;;21.40;44.30;;;;;;5014629;28;20042;-68
2021/11/19 04:24:29;;;;;;;1.45;0.50;;;21.40;44.40;;;;;;4996199;28;20027;-68
2021/11/19 04:26:56;;;;;;;0.75;0.40;;;21.40;44.30;;;;;;5014307;28;20038;-68
2021/11/19 04:29:22;;;;;;;1.17;0.40;;;21.40;44.40;;;;;;5012041;28;20048;-68
2021/11/19 04:32:09;;;;;;;1.73;0.50;;;21.40;44.40;;;;;;5004038;28;20056;-68
2021/11/19 04:34:38;;;;;;;1.15;0.40;;;21.40;44.30;;;;;;5011416;28;20042;-68
2021/11/19 04:37:04;;;;;;;1.25;0.50;;;21.40;44.40;;;;;;5003297;28;20049;-68
2021/11/19 04:39:30;;;;;;;1.30;0.50;;;21.40;44.40;;;;;;5013459;28;20502;-69
2021/11/19 04:41:57;;;;;;;0.75;0.40;;;21.40;44.40;;;;;;5015293;28;20529;-69
2021/11/19 04:44:23;;;;;;;5.18;0.70;;;21.40;44.40;;;;;;5014174;28;20637;-69
2021/11/19 04:46:49;;;;;;;2.90;0.63;;;21.40;44.90;;;;;;5012424;28;20057;-68
2021/11/19 04:49:15;;;;;;;2.40;0.57;;;21.40;44.90;;;;;;5012473;28;20030;-68
2021/11/19 04:51:43;;;;;;;2.05;0.60;;;21.40;44.80;;;;;;5012145;28;20423;-68
2021/11/19 04:54:10;;;;;;;1.55;0.55;;;21.40;44.90;;;;;;5011992;28;20065;-68
2021/11/19 04:56:39;;;;;;;0.60;0.30;;;21.40;44.80;;;;;;5011597;28;20046;-68
2021/11/19 04:59:06;;;;;;;1.67;0.50;;;21.40;44.70;;;;;;4996105;28;20057;-68
2021/11/19 05:01:35;;;;;;;6.28;0.60;;;21.40;44.70;;;;;;5009472;28;20072;-68
2021/11/19 05:04:05;;;;;;;1.67;0.50;;;21.40;44.70;;;;;;4998097;28;20050;-68
2021/11/19 05:06:33;;;;;;;1.85;0.50;;;21.40;44.70;;;;;;5003380;28;20762;-68
2021/11/19 05:09:02;;;;;;;1.30;0.43;;;21.30;44.60;;;;;;5010611;28;20046;-68
2021/11/19 05:11:36;;;;;;;1.23;0.43;;;21.30;44.50;;;;;;5012365;28;20054;-68
2021/11/19 05:14:05;;;;;;;1.30;0.45;;;21.30;44.50;;;;;;4996971;28;20029;-68
2021/11/19 05:16:33;;;;;;;2.17;0.50;;;21.30;44.50;;;;;;4996189;28;20097;-68
2021/11/19 05:18:59;;;;;;;0.90;0.47;;;21.30;44.50;;;;;;5005292;28;20050;-68
2021/11/19 05:21:25;;;;;;;3.13;0.60;;;21.40;44.70;;;;;;4995366;28;20500;-68
2021/11/19 05:23:52;;;;;;;0.90;0.45;;;21.30;44.40;;;;;;4996586;28;20034;-68
2021/11/19 05:26:18;;;;;;;1.05;0.40;;;21.30;44.40;;;;;;5001941;28;20538;-68
2021/11/19 05:28:44;;;;;;;1.00;0.40;;;21.30;44.50;;;;;;4998023;28;20573;-68
2021/11/19 05:31:13;;;;;;;2.03;0.50;;;21.30;44.40;;;;;;5003827;28;20029;-68
2021/11/19 05:33:40;;;;;;;1.50;0.50;;;21.30;44.90;;;;;;5007835;28;20486;-68
2021/11/19 05:36:08;;;;;;;2.15;0.57;;;21.30;44.40;;;;;;5011491;28;20118;-67
2021/11/19 05:38:39;;;;;;;2.20;0.70;;;21.30;44.40;;;;;;5009905;28;20038;-68
2021/11/19 05:41:07;;;;;;;5.25;1.00;;;21.30;44.70;;;;;;5010437;28;20038;-68
2021/11/19 05:43:35;;;;;;;5.03;0.80;;;21.30;44.70;;;;;;4999203;28;20388;-68
2021/11/19 05:46:08;;;;;;;3.17;0.60;;;21.30;44.60;;;;;;4999315;28;20526;-67
2021/11/19 05:48:48;;;;;;;2.15;0.60;;;21.30;44.50;;;;;;4998403;28;20148;-68
2021/11/19 05:51:15;;;;;;;5.32;0.90;;;21.40;44.70;;;;;;4992852;28;20041;-68
2021/11/19 05:53:42;;;;;;;4.40;1.00;;;21.30;44.50;;;;;;5008507;28;20038;-68
2021/11/19 05:56:09;;;;;;;2.55;0.68;;;21.40;44.70;;;;;;5008590;28;20046;-68
2021/11/19 05:58:36;;;;;;;4.13;0.80;;;21.40;44.70;;;;;;5008706;28;20038;-68
2021/11/19 06:01:07;;;;;;;5.20;0.80;;;21.40;44.70;;;;;;4996484;28;20212;-68
2021/11/19 06:03:41;;;;;;;6.88;0.80;;;21.40;44.70;;;;;;5008021;28;20616;-68
2021/11/19 06:06:24;;;;;;;5.35;0.88;;;21.40;44.70;;;;;;5007943;28;20062;-67
2021/11/19 06:09:27;;;;;;;4.22;0.93;;;21.30;44.50;;;;;;4988675;28;20065;-67
2021/11/19 06:11:56;;;;;;;3.55;0.85;;;21.30;44.50;;;;;;4997217;28;20046;-68
2021/11/19 06:14:42;;;;;;;9.25;1.65;;;21.30;44.60;;;;;;5001341;28;20045;-67
2021/11/19 06:17:25;;;;;;;9.85;1.40;;;21.30;44.80;;;;;;4994342;28;20559;-67
2021/11/19 06:19:57;;;;;;;8.98;1.75;;;21.30;45.00;;;;;;4994176;28;20042;-67
2021/11/19 06:22:36;;;;;;;17.95;1.85;;;21.30;45.30;;;;;;5010796;28;20407;-68
2021/11/19 06:25:06;;;;;;;15.45;2.50;;;21.30;45.40;;;;;;5011808;28;20053;-67
2021/11/19 06:27:35;;;;;;;10.57;2.03;;;21.30;45.60;;;;;;5009662;28;20034;-67
2021/11/19 06:30:06;;;;;;;13.70;1.90;;;21.30;45.70;;;;;;5010619;28;20533;-68
2021/11/19 06:32:32;;;;;;;14.15;1.83;;;21.30;45.80;;;;;;5009148;28;20046;-68
2021/11/19 06:34:59;;;;;;;11.88;1.70;;;21.30;45.80;;;;;;5009909;28;20045;-68
2021/11/19 06:37:26;;;;;;;11.55;1.67;;;21.30;45.90;;;;;;5009211;28;20037;-67
2021/11/19 06:39:58;;;;;;;15.38;1.75;;;21.30;46.00;;;;;;4997754;28;20078;-68
2021/11/19 06:42:40;;;;;;;18.65;2.33;;;21.30;46.10;;;;;;5002834;28;20120;-68
2021/11/19 06:45:27;;;;;;;19.75;2.63;;;21.30;46.30;;;;;;4988467;28;20050;-68
2021/11/19 06:47:59;;;;;;;34.38;3.20;;;21.30;46.50;;;;;;5005591;28;20919;-74
2021/11/19 06:50:57;;;;;;;18.55;2.35;;;21.30;47.50;;;;;;4976522;28;20037;-73
2021/11/19 06:53:38;;;;;;;20.30;2.42;;;21.30;48.20;;;;;;5009779;28;20501;-71
2021/11/19 06:56:30;;;;;;;19.33;2.58;;;21.40;49.20;;;;;;4996010;28;20038;-71
2021/11/19 06:59:18;;;;;;;15.68;1.98;;;21.60;50.60;;;;;;4994466;28;20061;-73
2021/11/19 07:01:44;;;;;;;14.77;2.30;;;21.70;50.10;;;;;;4998484;28;20041;-73
2021/11/19 07:04:11;;;;;;;20.75;2.70;;;21.90;50.80;;;;;;4995377;28;20049;-72
2021/11/19 07:06:38;;;;;;;12.23;1.85;;;22.00;50.50;;;;;;4995498;28;20049;-72
2021/11/19 07:09:06;;;;;;;7.20;1.75;;;22.20;50.40;;;;;;5000324;28;20034;-73
2021/11/19 07:11:33;;;;;;;9.43;1.55;;;22.30;50.30;;;;;;5009382;28;20057;-73
2021/11/19 07:13:59;;;;;;;10.50;1.55;;;22.50;50.10;;;;;;4998014;28;20050;-71
2021/11/19 07:16:28;;;;;;;10.32;1.55;;;22.60;50.00;;;;;;5010230;28;20068;-73
2021/11/19 07:18:56;;;;;;;7.50;1.35;;;22.70;49.60;;;;;;5002082;28;20048;-72
2021/11/19 07:21:23;;;;;;;7.55;1.30;;;22.80;49.50;;;;;;4992500;28;20031;-72
2021/11/19 07:23:50;;;;;;;9.68;1.45;;;22.90;49.20;;;;;;5010484;28;20049;-72
2021/11/19 07:26:17;;;;;;;17.27;1.77;;;23.00;49.60;;;;;;5009726;28;20052;-72
2021/11/19 07:28:44;;;;;;;5.80;1.50;;;23.10;49.50;;;;;;4994705;28;20155;-71
2021/11/19 07:31:29;;;;;;;9.20;1.38;;;23.20;48.50;;;;;;4993940;28;20038;-70
2021/11/19 07:34:18;;;;;;;6.10;1.35;;;23.20;48.00;;;;;;5012759;28;20682;-72
2021/11/19 07:37:04;;;;;;;4.53;1.33;;;23.20;45.00;;;;;;4997334;28;20133;-71
2021/11/19 07:39:53;;;;;;;3.60;1.10;;;23.00;44.80;;;;;;4992289;28;20046;-72
2021/11/19 07:42:45;;;;;;;4.03;1.20;;;22.90;44.80;;;;;;5005311;28;20875;-70
2021/11/19 07:45:13;;;;;;;8.30;1.13;;;22.90;45.30;;;;;;4998976;28;20316;-70
2021/11/19 07:47:45;;;;;;;7.03;1.38;;;22.90;45.70;;;;;;5005879;28;20883;-70
2021/11/19 07:50:13;;;;;;;3.13;0.90;;;23.00;45.90;;;;;;5012489;28;20044;-73
2021/11/19 07:52:39;;;;;;;8.65;1.02;;;23.10;46.00;;;;;;5010101;28;20728;-71
2021/11/19 07:55:06;;;;;;;3.75;0.93;;;23.10;46.00;;;;;;4995705;28;20042;-73
2021/11/19 07:57:32;;;;;;;2.85;0.90;;;23.30;46.40;;;;;;5011759;28;20142;-72
2021/11/19 07:59:58;;;;;;;6.63;1.05;;;23.30;46.40;;;;;;5011807;28;20569;-71
2021/11/19 08:02:23;;;;;;;4.28;0.90;;;23.40;46.40;;;;;;5014708;28;20043;-71
2021/11/19 08:04:49;;;;;;;4.03;0.95;;;23.40;46.40;;;;;;5001752;28;20108;-70
2021/11/19 08:07:23;;;;;;;7.78;1.15;;;23.50;46.50;;;;;;5010376;28;20080;-72
2021/11/19 08:09:49;;;;;;;3.85;0.82;;;23.50;46.40;;;;;;4999488;28;20045;-71
2021/11/19 08:12:24;;;;;;;4.45;1.00;;;23.60;46.40;;;;;;4993511;28;20062;-72
2021/11/19 08:15:09;;;;;;;3.75;0.90;;;23.60;46.40;;;;;;5011969;28;20035;-72
2021/11/19 08:17:41;;;;;;;2.63;0.70;;;23.70;46.40;;;;;;4998862;28;20081;-71
2021/11/19 08:20:25;;;;;;;4.43;0.90;;;23.70;46.60;;;;;;5004385;28;20065;-70
2021/11/19 08:22:54;;;;;;;3.90;0.85;;;23.80;46.40;;;;;;4997548;28;20514;-70
2021/11/19 08:25:21;;;;;;;6.68;0.70;;;23.80;46.50;;;;;;4997643;28;20163;-72
2021/11/19 08:27:50;;;;;;;5.85;0.82;;;23.80;46.10;;;;;;4996774;28;20057;-72
2021/11/19 08:30:22;;;;;;;2.42;0.68;;;23.80;46.20;;;;;;4997026;28;20042;-72
2021/11/19 08:32:48;;;;;;;5.00;0.80;;;23.90;46.30;;;;;;4995237;28;20592;-71
2021/11/19 08:35:14;;;;;;;4.63;0.75;;;23.80;46.50;;;;;;4994332;28;20034;-71
2021/11/19 08:37:41;;;;;;;3.25;0.90;;;23.80;46.20;;;;;;4997437;28;20058;-72
2021/11/19 08:40:10;;;;;;;2.65;0.70;;;23.80;46.30;;;;;;4994695;28;20759;-71
2021/11/19 08:42:38;;;;;;;2.67;0.80;;;23.80;46.20;;;;;;4996776;28;20510;-70
2021/11/19 08:45:05;;;;;;;4.78;0.80;;;23.90;46.40;;;;;;4995470;28;21202;-71
2021/11/19 08:47:31;;;;;;;3.28;0.75;;;23.90;46.40;;;;;;4993523;28;20034;-71
2021/11/19 08:50:01;;;;;;;2.15;0.63;;;23.90;46.10;;;;;;4996674;28;20092;-72
2021/11/19 08:52:26;;;;;;;13.98;0.93;;;23.90;46.60;;;;;;4995224;28;20042;-72
2021/11/19 08:54:52;;;;;;;4.15;0.80;;;23.90;47.00;;;;;;4996861;28;20038;-71
2021/11/19 08:57:21;;;;;;;6.57;0.65;;;23.80;46.60;;;;;;4996335;28;20578;-73
2021/11/19 08:59:49;;;;;;;4.50;0.77;;;23.80;46.40;;;;;;4995086;28;20500;-72
2021/11/19 09:02:18;;;;;;;4.30;0.80;;;23.80;46.50;;;;;;5010198;28;20041;-72
2021/11/19 09:04:44;;;;;;;3.38;0.80;;;23.80;46.50;;;;;;4995723;28;20507;-71
2021/11/19 09:07:11;;;;;;;3.30;0.50;;;23.80;46.40;;;;;;4995176;28;20042;-69
2021/11/19 09:09:38;;;;;;;5.57;0.80;;;23.80;46.40;;;;;;4993883;28;20104;-71
2021/11/19 09:12:05;;;;;;;3.40;0.60;;;23.90;46.40;;;;;;4993194;28;20601;-70
2021/11/19 09:14:30;;;;;;;4.15;0.52;;;23.90;46.30;;;;;;4996314;28;20065;-71
2021/11/19 09:17:02;;;;;;;7.00;0.70;;;23.90;46.30;;;;;;5001719;28;20410;-70
2021/11/19 09:19:57;;;;;;;3.90;0.80;;;24.00;46.30;;;;;;4995266;28;20519;-69
2021/11/19 09:22:31;;;;;;;6.80;0.88;;;24.00;46.30;;;;;;4995956;28;20034;-70
2021/11/19 09:25:02;;;;;;;2.65;0.60;;;24.10;46.40;;;;;;4996677;28;20065;-70
2021/11/19 09:27:30;;;;;;;5.65;0.80;;;24.00;46.20;;;;;;4994652;28;20045;-71
2021/11/19 09:30:05;;;;;;;2.85;0.60;;;24.10;46.30;;;;;;4995644;28;20095;-71
2021/11/19 09:32:31;;;;;;;3.08;0.80;;;24.00;46.20;;;;;;4995571;28;20077;-71
2021/11/19 09:34:59;;;;;;;3.25;0.73;;;24.10;46.40;;;;;;4995658;28;20058;-70
2021/11/19 09:37:26;;;;;;;2.70;0.70;;;24.10;46.40;;;;;;4995192;28;20065;-70
2021/11/19 09:39:53;;;;;;;6.05;0.73;;;24.10;46.20;;;;;;5009385;28;20137;-71
2021/11/19 09:42:53;;;;;;;3.33;0.70;;;24.10;46.10;;;;;;4993708;28;20172;-70
2021/11/19 09:45:52;;;;;;;5.82;0.80;;;24.00;46.30;;;;;;4995934;28;20050;-71
2021/11/19 09:48:36;;;;;;;7.10;0.65;;;23.90;46.10;;;;;;4994704;28;20133;-71
2021/11/19 09:51:24;;;;;;;6.25;0.95;;;23.90;46.20;;;;;;4996126;28;20030;-71
2021/11/19 09:54:28;;;;;;;3.50;0.60;;;23.90;46.40;;;;;;4995767;28;20495;-70
2021/11/19 09:57:16;;;;;;;4.07;0.75;;;23.90;46.30;;;;;;4995975;28;20041;-71
2021/11/19 09:59:52;;;;;;;2.78;0.63;;;23.90;46.30;;;;;;4993069;28;20431;-71
2021/11/19 10:02:40;;;;;;;5.45;0.63;;;23.90;46.30;;;;;;4997535;28;20069;-71
2021/11/19 10:05:29;;;;;;;3.65;0.90;;;23.90;46.30;;;;;;4994077;28;20067;-71
2021/11/19 10:07:57;;;;;;;2.17;0.60;;;23.90;46.20;;;;;;4995804;28;20046;-71
2021/11/19 10:10:47;;;;;;;3.45;0.70;;;23.90;46.30;;;;;;4992460;28;20046;-71
2021/11/19 10:13:22;;;;;;;2.95;0.68;;;23.90;46.30;;;;;;4996520;28;20073;-72
2021/11/19 10:16:02;;;;;;;3.58;0.60;;;23.90;46.20;;;;;;4993314;28;20567;-71
2021/11/19 10:18:44;;;;;;;3.33;0.70;;;23.90;46.20;;;;;;4996277;28;20107;-71
2021/11/19 10:21:28;;;;;;;3.60;0.70;;;23.90;46.30;;;;;;4994450;28;20428;-72
2021/11/19 10:24:15;;;;;;;2.53;0.70;;;24.00;46.40;;;;;;4994620;28;20038;-71
2021/11/19 10:26:41;;;;;;;10.98;0.75;;;24.00;46.40;;;;;;4994962;28;20046;-70
2021/11/19 10:29:21;;;;;;;16.08;1.00;;;24.00;46.60;;;;;;4995429;28;20040;-70
2021/11/19 10:31:48;;;;;;;10.18;1.20;;;24.00;46.40;;;;;;4993310;28;20050;-68
2021/11/19 10:34:26;;;;;;;7.03;0.80;;;23.90;46.10;;;;;;4993332;28;20056;-71
2021/11/19 10:36:57;;;;;;;2.83;0.80;;;23.90;46.10;;;;;;4995626;28;20066;-72
2021/11/19 10:39:39;;;;;;;3.60;0.80;;;23.90;46.10;;;;;;4993870;28;20060;-71
2021/11/19 10:42:23;;;;;;;10.07;0.90;;;23.90;46.20;;;;;;4994035;28;20046;-72
2021/11/19 10:45:16;;;;;;;10.25;0.80;;;23.90;46.30;;;;;;4993191;28;20058;-72
2021/11/19 10:48:07;;;;;;;2.83;0.60;;;23.90;46.30;;;;;;4994775;28;20049;-71
2021/11/19 10:51:01;;;;;;;4.20;0.82;;;23.90;46.20;;;;;;4994230;28;20066;-72
2021/11/19 10:53:29;;;;;;;3.60;0.60;;;23.90;46.70;;;;;;4993840;28;20042;-71
2021/11/19 10:56:34;;;;;;;6.70;0.80;;;23.90;46.30;;;;;;4994212;28;20046;-71
2021/11/19 10:59:20;;;;;;;6.50;0.65;;;23.80;47.20;;;;;;4994304;28;20041;-71
2021/11/19 11:01:56;;;;;;;1.98;0.52;;;23.50;47.40;;;;;;4992592;28;20196;-70
2021/11/19 11:04:36;;;;;;;6.93;0.70;;;23.40;47.50;;;;;;4996744;28;20113;-70
2021/11/19 11:07:32;;;;;;;2.60;0.70;;;23.40;47.60;;;;;;4994926;28;20087;-72
2021/11/19 11:09:58;;;;;;;5.63;0.80;;;23.50;47.20;;;;;;4994689;28;20058;-70
2021/11/19 11:12:43;;;;;;;3.47;0.90;;;23.50;46.80;;;;;;5001771;28;20495;-70
2021/11/19 11:15:21;;;;;;;3.15;0.85;;;23.60;46.80;;;;;;4996131;28;20048;-72
2021/11/19 11:17:55;;;;;;;5.75;0.85;;;23.70;47.30;;;;;;4996790;28;20058;-70
2021/11/19 11:20:25;;;;;;;3.22;0.85;;;23.70;46.70;;;;;;4994303;28;20043;-72
2021/11/19 11:22:55;;;;;;;4.75;1.08;;;23.80;46.80;;;;;;4994986;28;20033;-71
2021/11/19 11:25:29;;;;;;;3.35;1.05;;;23.80;46.80;;;;;;4994433;28;20037;-71
2021/11/19 11:28:01;;;;;;;3.58;0.90;;;23.80;46.60;;;;;;4996717;28;20447;-70
2021/11/19 11:30:45;;;;;;;4.78;0.80;;;23.90;46.70;;;;;;4995632;28;20558;-71
2021/11/19 11:33:14;;;;;;;5.47;1.08;;;23.90;46.50;;;;;;4996141;28;20057;-70
2021/11/19 11:35:49;;;;;;;3.80;1.00;;;23.90;46.50;;;;;;4995660;28;20046;-71
2021/11/19 11:38:14;;;;;;;3.28;0.95;;;23.90;46.80;;;;;;4997226;28;20103;-71
2021/11/19 11:40:51;;;;;;;3.33;0.85;;;24.00;46.50;;;;;;4995613;28;20492;-71
2021/11/19 11:43:26;;;;;;;4.88;0.80;;;24.00;46.40;;;;;;4995242;28;20042;-70
2021/11/19 11:45:59;;;;;;;4.18;0.80;;;24.00;46.30;;;;;;4992967;28;20355;-71
2021/11/19 11:48:41;;;;;;;3.25;0.90;;;24.10;46.30;;;;;;4994855;28;20118;-71
2021/11/19 11:51:11;;;;;;;2.15;0.80;;;24.10;46.40;;;;;;4994696;28;20045;-71
2021/11/19 11:54:05;;;;;;;5.18;0.90;;;24.10;46.20;;;;;;5009488;28;20038;-72
2021/11/19 11:56:42;;;;;;;2.53;0.80;;;24.10;46.40;;;;;;4995083;28;20046;-72
2021/11/19 11:59:32;;;;;;;3.47;0.98;;;24.10;46.20;;;;;;4993451;28;20030;-70
2021/11/19 12:02:18;;;;;;;2.67;0.80;;;24.20;46.30;;;;;;4993365;28;20129;-70
2021/11/19 12:05:06;;;;;;;4.80;0.90;;;24.20;46.40;;;;;;4993262;28;20041;-70
2021/11/19 12:07:44;;;;;;;3.33;0.90;;;24.20;46.40;;;;;;4992867;28;20100;-71
2021/11/19 12:10:36;;;;;;;3.13;0.70;;;24.20;46.50;;;;;;4994009;28;20051;-71
2021/11/19 12:13:09;;;;;;;5.10;0.75;;;24.10;46.90;;;;;;4993856;28;20044;-70
2021/11/19 12:16:06;;;;;;;2.05;0.70;;;23.90;46.80;;;;;;4996460;28;20065;-70
2021/11/19 12:18:51;;;;;;;1.67;0.60;;;23.80;47.10;;;;;;4995703;28;20049;-70
2021/11/19 12:21:28;;;;;;;2.28;0.60;;;23.80;47.40;;;;;;4998153;28;20084;-70
2021/11/19 12:24:14;;;;;;;2.75;0.80;;;23.70;47.50;;;;;;4996289;28;20035;-73
2021/11/19 12:26:42;;;;;;;2.88;0.70;;;23.70;47.50;;;;;;4999638;28;20590;-72
2021/11/19 12:29:41;;;;;;;8.82;0.60;;;23.60;47.70;;;;;;5000721;28;20048;-71
2021/11/19 12:32:14;;;;;;;2.92;0.75;;;23.50;47.60;;;;;;4996237;28;20085;-70
2021/11/19 12:34:55;;;;;;;5.72;1.00;;;23.50;47.50;;;;;;4998763;28;20049;-70
2021/11/19 12:37:45;;;;;;;6.20;1.05;;;23.50;47.60;;;;;;4997478;28;20045;-70
2021/11/19 12:40:31;;;;;;;3.60;0.95;;;23.50;46.80;;;;;;4996727;28;20045;-71
2021/11/19 12:43:11;;;;;;;3.35;0.90;;;23.60;46.60;;;;;;4996701;28;20034;-72
2021/11/19 12:45:42;;;;;;;5.47;1.08;;;23.70;46.70;;;;;;4996819;28;20101;-71
2021/11/19 12:48:29;;;;;;;4.47;0.85;;;23.70;46.40;;;;;;4997624;28;20100;-71
2021/11/19 12:51:01;;;;;;;6.50;1.00;;;23.80;46.40;;;;;;4995752;28;20630;-71
2021/11/19 12:53:39;;;;;;;2.53;0.90;;;23.80;46.60;;;;;;4996456;28;20380;-71
2021/11/19 12:56:37;;;;;;;3.38;1.05;;;23.80;46.20;;;;;;4996523;28;20033;-70
2021/11/19 12:59:06;;;;;;;4.65;0.90;;;23.90;46.20;;;;;;4998409;28;20062;-69
2021/11/19 13:01:52;;;;;;;5.10;1.00;;;23.90;46.10;;;;;;4999041;28;20121;-70
2021/11/19 13:04:34;;;;;;;2.55;0.70;;;23.90;46.10;;;;;;4996735;28;20388;-68
2021/11/19 13:07:29;;;;;;;3.95;1.10;;;23.90;46.00;;;;;;4996637;28;20042;-66
2021/11/19 13:10:03;;;;;;;8.05;1.20;;;23.90;46.70;;;;;;4997351;28;20535;-67
2021/11/19 13:12:30;;;;;;;4.03;0.90;;;23.80;45.40;;;;;;4996303;28;20923;-65
2021/11/19 13:15:22;;;;;;;4.03;0.90;;;23.70;45.20;;;;;;4996651;28;20069;-66
2021/11/19 13:17:56;;;;;;;5.13;1.05;;;23.60;46.00;;;;;;4992958;28;21046;-67
2021/11/19 13:20:48;;;;;;;4.25;1.00;;;23.50;45.30;;;;;;4998047;28;20864;-67
2021/11/19 13:23:29;;;;;;;5.30;1.00;;;23.40;45.40;;;;;;4996162;28;20045;-66